sensor_id;sensor_type;location;lat;lon;timestamp;noise_LAeq;noise_LA_min;noise_LA_max;noise_LA01;noise_LA95
64545;Laerm;50936;51.660;5.616;2022-09-21T00:01:28;56.88;40.43;74.35;;
64545;Laerm;50936;51.660;5.616;2022-09-21T00:03:59;42.29;40.03;43.86;;
64545;Laerm;50936;51.660;5.616;2022-09-21T00:06:31;42.25;40.33;43.81;;
64545;Laerm;50936;51.660;5.616;2022-09-21T00:08:58;47.27;40.33;60.32;;
64545;Laerm;50936;51.660;5.616;2022-09-21T00:11:29;51.39;40.53;72.07;;
64545;Laerm;50936;51.660;5.616;2022-09-21T00:14:03;49.36;40.89;62.82;;
64545;Laerm;50936;51.660;5.616;2022-09-21T00:16:33;47.81;40.23;62.18;;
64545;Laerm;50936;51.660;5.616;2022-09-21T00:19:01;42.75;39.46;49.00;;
64545;Laerm;50936;51.660;5.616;2022-09-21T00:21:28;52.43;40.03;68.98;;
64545;Laerm;50936;51.660;5.616;2022-09-21T00:23:57;44.89;40.89;56.66;;
64545;Laerm;50936;51.660;5.616;2022-09-21T00:26:26;43.22;40.53;52.63;;
64545;Laerm;50936;51.660;5.616;2022-09-21T00:28:58;42.21;39.92;43.68;;
64545;Laerm;50936;51.660;5.616;2022-09-21T00:31:27;42.75;40.23;48.99;;
64545;Laerm;50936;51.660;5.616;2022-09-21T00:33:54;42.13;39.92;43.86;;
64545;Laerm;50936;51.660;5.616;2022-09-21T00:36:23;42.16;40.27;43.63;;
64545;Laerm;50936;51.660;5.616;2022-09-21T00:38:54;42.40;40.03;48.16;;
64545;Laerm;50936;51.660;5.616;2022-09-21T00:41:24;42.20;39.34;43.64;;
64545;Laerm;50936;51.660;5.616;2022-09-21T00:44:26;42.40;40.23;44.51;;
64545;Laerm;50936;51.660;5.616;2022-09-21T00:47:06;42.26;40.13;43.94;;
64545;Laerm;50936;51.660;5.616;2022-09-21T00:49:36;42.64;40.53;55.23;;
64545;Laerm;50936;51.660;5.616;2022-09-21T00:52:06;42.75;40.53;56.18;;
64545;Laerm;50936;51.660;5.616;2022-09-21T00:54:45;49.48;40.80;65.83;;
64545;Laerm;50936;51.660;5.616;2022-09-21T00:57:16;42.50;40.43;45.23;;
64545;Laerm;50936;51.660;5.616;2022-09-21T00:59:44;42.40;40.23;43.86;;
64545;Laerm;50936;51.660;5.616;2022-09-21T01:02:11;42.41;40.36;46.76;;
64545;Laerm;50936;51.660;5.616;2022-09-21T01:04:40;42.30;40.13;43.94;;
64545;Laerm;50936;51.660;5.616;2022-09-21T01:07:18;63.74;40.71;87.33;;
64545;Laerm;50936;51.660;5.616;2022-09-21T01:09:51;47.18;40.53;64.52;;
64545;Laerm;50936;51.660;5.616;2022-09-21T01:18:16;53.68;40.53;72.06;;
64545;Laerm;50936;51.660;5.616;2022-09-21T01:26:41;42.41;40.18;45.07;;
64545;Laerm;50936;51.660;5.616;2022-09-21T01:32:18;43.06;40.53;51.40;;
64545;Laerm;50936;51.660;5.616;2022-09-21T01:37:39;47.98;40.53;61.20;;
64545;Laerm;50936;51.660;5.616;2022-09-21T01:40:19;50.60;40.43;66.93;;
64545;Laerm;50936;51.660;5.616;2022-09-21T01:42:50;42.98;40.98;50.30;;
64545;Laerm;50936;51.660;5.616;2022-09-21T01:45:30;42.34;40.33;53.25;;
64545;Laerm;50936;51.660;5.616;2022-09-21T01:48:00;42.26;40.13;44.27;;
64545;Laerm;50936;51.660;5.616;2022-09-21T01:50:36;42.20;40.53;43.54;;
64545;Laerm;50936;51.660;5.616;2022-09-21T01:53:20;42.22;40.03;46.23;;
64545;Laerm;50936;51.660;5.616;2022-09-21T01:55:55;48.31;40.13;63.22;;
64545;Laerm;50936;51.660;5.616;2022-09-21T01:58:34;43.58;40.43;53.84;;
64545;Laerm;50936;51.660;5.616;2022-09-21T02:01:04;42.40;40.23;53.75;;
64545;Laerm;50936;51.660;5.616;2022-09-21T02:03:42;42.23;40.43;44.34;;
64545;Laerm;50936;51.660;5.616;2022-09-21T02:06:12;42.93;40.33;48.36;;
64545;Laerm;50936;51.660;5.616;2022-09-21T02:08:40;51.39;40.53;67.71;;
64545;Laerm;50936;51.660;5.616;2022-09-21T02:11:07;42.19;40.33;49.62;;
64545;Laerm;50936;51.660;5.616;2022-09-21T02:13:44;48.28;40.62;62.88;;
64545;Laerm;50936;51.660;5.616;2022-09-21T02:16:35;47.20;41.14;65.40;;
64545;Laerm;50936;51.660;5.616;2022-09-21T02:25:53;43.67;40.62;55.01;;
64545;Laerm;50936;51.660;5.616;2022-09-21T02:31:23;49.92;40.80;64.07;;
64545;Laerm;50936;51.660;5.616;2022-09-21T02:36:45;52.07;40.88;71.29;;
64545;Laerm;50936;51.660;5.616;2022-09-21T02:39:30;47.66;41.22;69.77;;
64545;Laerm;50936;51.660;5.616;2022-09-21T02:42:05;46.31;41.68;65.80;;
64545;Laerm;50936;51.660;5.616;2022-09-21T02:44:46;51.83;41.46;67.03;;
64545;Laerm;50936;51.660;5.616;2022-09-21T02:47:24;51.85;40.71;70.16;;
64545;Laerm;50936;51.660;5.616;2022-09-21T02:50:02;52.01;41.14;68.49;;
64545;Laerm;50936;51.660;5.616;2022-09-21T02:52:32;42.38;40.62;43.90;;
64545;Laerm;50936;51.660;5.616;2022-09-21T02:55:02;42.65;40.43;48.28;;
64545;Laerm;50936;51.660;5.616;2022-09-21T02:57:29;45.01;40.23;55.39;;
64545;Laerm;50936;51.660;5.616;2022-09-21T02:59:56;55.35;40.62;69.57;;
64545;Laerm;50936;51.660;5.616;2022-09-21T03:02:34;48.18;40.23;63.23;;
64545;Laerm;50936;51.660;5.616;2022-09-21T03:05:02;51.87;41.06;69.60;;
64545;Laerm;50936;51.660;5.616;2022-09-21T03:07:29;43.70;40.80;50.74;;
64545;Laerm;50936;51.660;5.616;2022-09-21T03:09:56;45.36;41.68;57.85;;
64545;Laerm;50936;51.660;5.616;2022-09-21T03:12:23;53.34;40.98;69.47;;
64545;Laerm;50936;51.660;5.616;2022-09-21T03:14:50;52.68;41.38;65.17;;
64545;Laerm;50936;51.660;5.616;2022-09-21T03:17:17;51.59;41.06;66.44;;
64545;Laerm;50936;51.660;5.616;2022-09-21T03:19:44;55.02;41.46;70.75;;
64545;Laerm;50936;51.660;5.616;2022-09-21T03:22:11;50.41;41.82;64.28;;
64545;Laerm;50936;51.660;5.616;2022-09-21T03:24:38;44.17;41.30;52.01;;
64545;Laerm;50936;51.660;5.616;2022-09-21T03:27:17;53.27;41.22;67.14;;
64545;Laerm;50936;51.660;5.616;2022-09-21T03:29:44;57.27;41.38;75.59;;
64545;Laerm;50936;51.660;5.616;2022-09-21T03:32:12;61.20;41.30;80.82;;
64545;Laerm;50936;51.660;5.616;2022-09-21T03:34:40;51.23;41.68;66.02;;
64545;Laerm;50936;51.660;5.616;2022-09-21T03:37:09;49.89;41.68;65.33;;
64545;Laerm;50936;51.660;5.616;2022-09-21T03:39:36;46.21;41.61;68.57;;
64545;Laerm;50936;51.660;5.616;2022-09-21T03:42:03;45.45;41.96;54.00;;
64545;Laerm;50936;51.660;5.616;2022-09-21T03:44:30;56.35;42.16;70.46;;
64545;Laerm;50936;51.660;5.616;2022-09-21T03:46:57;55.00;42.29;72.99;;
64545;Laerm;50936;51.660;5.616;2022-09-21T03:49:24;46.02;41.38;54.33;;
64545;Laerm;50936;51.660;5.616;2022-09-21T03:51:51;53.38;41.61;66.87;;
64545;Laerm;50936;51.660;5.616;2022-09-21T03:54:18;50.81;42.03;62.32;;
64545;Laerm;50936;51.660;5.616;2022-09-21T03:56:45;53.51;42.16;76.02;;
64545;Laerm;50936;51.660;5.616;2022-09-21T03:59:12;47.10;42.47;58.28;;
64545;Laerm;50936;51.660;5.616;2022-09-21T04:01:40;54.28;42.41;69.78;;
64545;Laerm;50936;51.660;5.616;2022-09-21T04:04:08;54.22;42.53;65.95;;
64545;Laerm;50936;51.660;5.616;2022-09-21T04:06:35;59.00;42.22;73.38;;
64545;Laerm;50936;51.660;5.616;2022-09-21T04:09:02;58.22;42.82;75.24;;
64545;Laerm;50936;51.660;5.616;2022-09-21T04:11:29;55.07;42.47;67.84;;
64545;Laerm;50936;51.660;5.616;2022-09-21T04:13:58;55.00;43.46;69.05;;
64545;Laerm;50936;51.660;5.616;2022-09-21T04:16:26;54.08;43.24;74.04;;
64545;Laerm;50936;51.660;5.616;2022-09-21T04:18:53;53.59;42.47;71.78;;
64545;Laerm;50936;51.660;5.616;2022-09-21T04:21:21;58.59;42.47;80.40;;
64545;Laerm;50936;51.660;5.616;2022-09-21T04:23:48;56.76;44.80;69.31;;
64545;Laerm;50936;51.660;5.616;2022-09-21T04:26:29;62.59;45.51;77.05;;
64545;Laerm;50936;51.660;5.616;2022-09-21T04:28:57;51.58;42.53;68.76;;
64545;Laerm;50936;51.660;5.616;2022-09-21T04:31:26;59.28;43.86;71.94;;
64545;Laerm;50936;51.660;5.616;2022-09-21T04:33:55;60.10;43.39;77.70;;
64545;Laerm;50936;51.660;5.616;2022-09-21T04:36:24;57.13;43.24;69.58;;
64545;Laerm;50936;51.660;5.616;2022-09-21T04:38:51;56.63;43.49;68.00;;
64545;Laerm;50936;51.660;5.616;2022-09-21T04:41:18;56.19;43.68;69.22;;
64545;Laerm;50936;51.660;5.616;2022-09-21T04:43:47;59.86;44.80;74.95;;
64545;Laerm;50936;51.660;5.616;2022-09-21T04:46:17;56.91;44.07;67.49;;
64545;Laerm;50936;51.660;5.616;2022-09-21T04:48:47;57.37;43.44;68.80;;
64545;Laerm;50936;51.660;5.616;2022-09-21T04:51:16;60.53;45.30;76.31;;
64545;Laerm;50936;51.660;5.616;2022-09-21T04:53:44;56.77;43.90;72.78;;
64545;Laerm;50936;51.660;5.616;2022-09-21T04:56:15;59.92;46.38;70.99;;
64545;Laerm;50936;51.660;5.616;2022-09-21T04:58:42;57.71;44.11;70.41;;
64545;Laerm;50936;51.660;5.616;2022-09-21T05:01:09;58.61;44.83;69.58;;
64545;Laerm;50936;51.660;5.616;2022-09-21T05:03:37;60.00;45.01;72.00;;
64545;Laerm;50936;51.660;5.616;2022-09-21T05:06:04;55.72;44.80;71.16;;
64545;Laerm;50936;51.660;5.616;2022-09-21T05:08:31;58.20;44.35;72.00;;
64545;Laerm;50936;51.660;5.616;2022-09-21T05:11:18;59.18;47.20;68.05;;
64545;Laerm;50936;51.660;5.616;2022-09-21T05:13:46;57.83;43.99;68.06;;
64545;Laerm;50936;51.660;5.616;2022-09-21T05:16:14;60.59;46.28;71.04;;
64545;Laerm;50936;51.660;5.616;2022-09-21T05:18:42;60.04;46.02;69.83;;
64545;Laerm;50936;51.660;5.616;2022-09-21T05:21:11;59.23;45.91;79.18;;
64545;Laerm;50936;51.660;5.616;2022-09-21T05:23:39;59.46;46.48;69.88;;
64545;Laerm;50936;51.660;5.616;2022-09-21T05:26:07;59.84;45.80;70.71;;
64545;Laerm;50936;51.660;5.616;2022-09-21T05:28:34;61.05;47.28;73.30;;
64545;Laerm;50936;51.660;5.616;2022-09-21T05:31:56;59.62;46.84;74.67;;
64545;Laerm;50936;51.660;5.616;2022-09-21T05:34:49;62.41;47.61;75.85;;
64545;Laerm;50936;51.660;5.616;2022-09-21T05:37:54;61.76;46.52;78.72;;
64545;Laerm;50936;51.660;5.616;2022-09-21T05:40:23;61.82;49.44;72.11;;
64545;Laerm;50936;51.660;5.616;2022-09-21T05:42:50;61.66;50.96;75.76;;
64545;Laerm;50936;51.660;5.616;2022-09-21T05:45:18;60.22;48.84;71.57;;
64545;Laerm;50936;51.660;5.616;2022-09-21T05:48:10;62.61;51.08;78.81;;
64545;Laerm;50936;51.660;5.616;2022-09-21T05:56:21;59.81;46.25;76.23;;
64545;Laerm;50936;51.660;5.616;2022-09-21T06:04:26;64.67;54.51;83.96;;
64545;Laerm;50936;51.660;5.616;2022-09-21T06:06:53;62.35;50.08;83.26;;
64545;Laerm;50936;51.660;5.616;2022-09-21T06:09:20;62.86;51.03;73.29;;
64545;Laerm;50936;51.660;5.616;2022-09-21T06:11:47;65.93;52.00;90.34;;
64545;Laerm;50936;51.660;5.616;2022-09-21T06:14:14;63.41;51.12;73.90;;
64545;Laerm;50936;51.660;5.616;2022-09-21T06:16:42;62.28;49.21;73.15;;
64545;Laerm;50936;51.660;5.616;2022-09-21T06:19:12;62.24;52.22;77.01;;
64545;Laerm;50936;51.660;5.616;2022-09-21T06:21:39;63.19;52.16;72.82;;
64545;Laerm;50936;51.660;5.616;2022-09-21T06:24:06;63.56;50.78;72.41;;
64545;Laerm;50936;51.660;5.616;2022-09-21T06:26:33;62.56;49.96;74.59;;
64545;Laerm;50936;51.660;5.616;2022-09-21T06:29:00;63.43;50.66;83.83;;
64545;Laerm;50936;51.660;5.616;2022-09-21T06:31:27;61.57;50.20;74.99;;
64545;Laerm;50936;51.660;5.616;2022-09-21T06:33:54;64.31;52.12;75.57;;
64545;Laerm;50936;51.660;5.616;2022-09-21T06:36:21;63.37;50.97;73.44;;
64545;Laerm;50936;51.660;5.616;2022-09-21T06:38:48;63.44;50.70;76.68;;
64545;Laerm;50936;51.660;5.616;2022-09-21T06:41:15;61.06;49.19;79.64;;
64545;Laerm;50936;51.660;5.616;2022-09-21T06:43:47;61.10;50.56;69.77;;
64545;Laerm;50936;51.660;5.616;2022-09-21T06:46:14;60.22;45.97;75.72;;
64545;Laerm;50936;51.660;5.616;2022-09-21T06:48:41;62.69;50.21;73.71;;
64545;Laerm;50936;51.660;5.616;2022-09-21T06:51:08;62.65;52.43;70.18;;
64545;Laerm;50936;51.660;5.616;2022-09-21T06:53:35;60.59;50.62;70.28;;
64545;Laerm;50936;51.660;5.616;2022-09-21T06:56:05;63.01;50.79;72.31;;
64545;Laerm;50936;51.660;5.616;2022-09-21T06:58:34;62.39;50.40;79.96;;
64545;Laerm;50936;51.660;5.616;2022-09-21T07:01:10;63.77;48.63;76.75;;
64545;Laerm;50936;51.660;5.616;2022-09-21T07:03:39;63.75;51.22;78.76;;
64545;Laerm;50936;51.660;5.616;2022-09-21T07:06:08;61.02;48.77;76.27;;
64545;Laerm;50936;51.660;5.616;2022-09-21T07:08:37;66.75;50.88;95.01;;
64545;Laerm;50936;51.660;5.616;2022-09-21T07:11:25;62.16;50.77;70.32;;
64545;Laerm;50936;51.660;5.616;2022-09-21T07:13:53;60.79;46.45;77.14;;
64545;Laerm;50936;51.660;5.616;2022-09-21T07:16:20;64.33;51.55;84.24;;
64545;Laerm;50936;51.660;5.616;2022-09-21T07:18:47;62.14;50.06;75.40;;
64545;Laerm;50936;51.660;5.616;2022-09-21T07:21:14;63.16;49.19;78.91;;
64545;Laerm;50936;51.660;5.616;2022-09-21T07:23:42;63.26;49.90;73.46;;
64545;Laerm;50936;51.660;5.616;2022-09-21T07:26:12;64.88;50.48;76.50;;
64545;Laerm;50936;51.660;5.616;2022-09-21T07:28:39;62.35;49.20;75.39;;
64545;Laerm;50936;51.660;5.616;2022-09-21T07:31:14;65.49;49.95;79.75;;
64545;Laerm;50936;51.660;5.616;2022-09-21T07:33:43;63.34;52.80;77.51;;
64545;Laerm;50936;51.660;5.616;2022-09-21T07:36:12;62.38;52.83;71.41;;
64545;Laerm;50936;51.660;5.616;2022-09-21T07:38:42;59.13;48.42;69.61;;
64545;Laerm;50936;51.660;5.616;2022-09-21T07:41:12;71.48;48.21;89.43;;
64545;Laerm;50936;51.660;5.616;2022-09-21T07:43:40;62.90;48.77;81.15;;
64545;Laerm;50936;51.660;5.616;2022-09-21T07:46:11;63.12;51.48;74.23;;
64545;Laerm;50936;51.660;5.616;2022-09-21T07:48:38;62.99;50.29;78.33;;
64545;Laerm;50936;51.660;5.616;2022-09-21T07:51:12;62.73;48.81;78.30;;
64545;Laerm;50936;51.660;5.616;2022-09-21T07:53:42;61.49;48.54;69.24;;
64545;Laerm;50936;51.660;5.616;2022-09-21T07:56:15;63.03;51.50;72.83;;
64545;Laerm;50936;51.660;5.616;2022-09-21T07:58:43;61.87;51.87;73.09;;
64545;Laerm;50936;51.660;5.616;2022-09-21T08:01:29;62.53;50.58;74.12;;
64545;Laerm;50936;51.660;5.616;2022-09-21T08:03:57;63.23;48.08;75.61;;
64545;Laerm;50936;51.660;5.616;2022-09-21T08:06:28;62.30;47.57;74.97;;
64545;Laerm;50936;51.660;5.616;2022-09-21T08:08:56;61.90;47.77;74.90;;
64545;Laerm;50936;51.660;5.616;2022-09-21T08:11:26;62.88;50.17;77.84;;
64545;Laerm;50936;51.660;5.616;2022-09-21T08:14:00;60.88;46.23;75.65;;
64545;Laerm;50936;51.660;5.616;2022-09-21T08:16:29;62.76;48.34;71.66;;
64545;Laerm;50936;51.660;5.616;2022-09-21T08:18:56;63.20;51.62;75.34;;
64545;Laerm;50936;51.660;5.616;2022-09-21T08:21:23;64.29;50.57;75.87;;
64545;Laerm;50936;51.660;5.616;2022-09-21T08:23:50;62.13;51.50;71.53;;
64545;Laerm;50936;51.660;5.616;2022-09-21T08:26:19;62.31;47.46;70.85;;
64545;Laerm;50936;51.660;5.616;2022-09-21T08:28:51;62.43;51.08;74.33;;
64545;Laerm;50936;51.660;5.616;2022-09-21T08:31:21;63.00;52.88;71.96;;
64545;Laerm;50936;51.660;5.616;2022-09-21T08:33:50;65.96;51.08;83.78;;
64545;Laerm;50936;51.660;5.616;2022-09-21T08:36:18;63.02;53.68;74.78;;
64545;Laerm;50936;51.660;5.616;2022-09-21T08:38:46;64.79;54.43;86.66;;
64545;Laerm;50936;51.660;5.616;2022-09-21T08:41:19;66.00;53.38;78.67;;
64545;Laerm;50936;51.660;5.616;2022-09-21T08:44:20;62.99;54.53;71.67;;
64545;Laerm;50936;51.660;5.616;2022-09-21T08:47:37;63.76;52.56;74.07;;
64545;Laerm;50936;51.660;5.616;2022-09-21T08:50:33;62.07;51.05;75.24;;
64545;Laerm;50936;51.660;5.616;2022-09-21T08:53:11;63.04;49.20;75.80;;
64545;Laerm;50936;51.660;5.616;2022-09-21T08:55:39;62.67;51.26;72.82;;
64545;Laerm;50936;51.660;5.616;2022-09-21T08:58:22;61.60;49.15;74.11;;
64545;Laerm;50936;51.660;5.616;2022-09-21T09:04:03;61.93;51.02;76.03;;
64545;Laerm;50936;51.660;5.616;2022-09-21T09:17:55;61.90;50.13;74.71;;
64545;Laerm;50936;51.660;5.616;2022-09-21T09:20:43;63.27;50.44;74.85;;
64545;Laerm;50936;51.660;5.616;2022-09-21T09:23:24;65.26;54.59;77.50;;
64545;Laerm;50936;51.660;5.616;2022-09-21T09:26:00;61.61;49.67;80.06;;
64545;Laerm;50936;51.660;5.616;2022-09-21T09:28:43;64.86;53.19;80.84;;
64545;Laerm;50936;51.660;5.616;2022-09-21T09:31:28;63.45;52.75;77.49;;
64545;Laerm;50936;51.660;5.616;2022-09-21T09:34:24;60.53;47.10;68.21;;
64545;Laerm;50936;51.660;5.616;2022-09-21T09:37:09;64.20;54.90;74.67;;
64545;Laerm;50936;51.660;5.616;2022-09-21T09:39:37;63.36;51.11;71.20;;
64545;Laerm;50936;51.660;5.616;2022-09-21T09:50:43;64.90;52.04;79.35;;
64545;Laerm;50936;51.660;5.616;2022-09-21T09:53:15;62.05;48.48;74.14;;
64545;Laerm;50936;51.660;5.616;2022-09-21T09:55:47;62.33;49.60;80.55;;
64545;Laerm;50936;51.660;5.616;2022-09-21T09:58:25;64.79;48.52;78.87;;
64545;Laerm;50936;51.660;5.616;2022-09-21T10:00:54;62.99;50.98;73.04;;
64545;Laerm;50936;51.660;5.616;2022-09-21T10:03:26;67.64;51.01;80.68;;
64545;Laerm;50936;51.660;5.616;2022-09-21T10:05:54;63.12;52.70;69.96;;
64545;Laerm;50936;51.660;5.616;2022-09-21T10:11:05;64.98;53.37;77.74;;
64545;Laerm;50936;51.660;5.616;2022-09-21T10:13:38;62.16;50.58;81.50;;
64545;Laerm;50936;51.660;5.616;2022-09-21T10:16:22;73.06;51.75;94.53;;
64545;Laerm;50936;51.660;5.616;2022-09-21T10:18:53;71.29;52.09;97.33;;
64545;Laerm;50936;51.660;5.616;2022-09-21T10:21:25;64.79;56.71;81.49;;
64545;Laerm;50936;51.660;5.616;2022-09-21T10:24:02;68.83;55.18;82.90;;
64545;Laerm;50936;51.660;5.616;2022-09-21T10:26:44;63.62;55.63;77.38;;
64545;Laerm;50936;51.660;5.616;2022-09-21T10:29:48;66.95;55.26;81.87;;
64545;Laerm;50936;51.660;5.616;2022-09-21T10:37:38;63.32;53.22;74.16;;
64545;Laerm;50936;51.660;5.616;2022-09-21T10:42:49;62.13;49.25;73.27;;
64545;Laerm;50936;51.660;5.616;2022-09-21T10:45:26;62.26;52.72;75.45;;
64545;Laerm;50936;51.660;5.616;2022-09-21T10:48:13;63.70;52.06;78.60;;
64545;Laerm;50936;51.660;5.616;2022-09-21T10:50:47;64.86;52.22;79.49;;
64545;Laerm;50936;51.660;5.616;2022-09-21T10:53:35;64.04;52.42;78.85;;
64545;Laerm;50936;51.660;5.616;2022-09-21T10:59:23;63.93;51.20;86.81;;
64545;Laerm;50936;51.660;5.616;2022-09-21T11:01:54;63.72;49.12;77.14;;
64545;Laerm;50936;51.660;5.616;2022-09-21T11:07:08;64.77;52.56;75.29;;
64545;Laerm;50936;51.660;5.616;2022-09-21T11:18:33;61.04;47.14;75.09;;
64545;Laerm;50936;51.660;5.616;2022-09-21T11:21:21;60.87;49.29;72.15;;
64545;Laerm;50936;51.660;5.616;2022-09-21T11:27:11;63.73;54.34;78.69;;
64545;Laerm;50936;51.660;5.616;2022-09-21T11:29:46;62.01;52.38;74.58;;
64545;Laerm;50936;51.660;5.616;2022-09-21T11:32:41;64.34;52.25;81.26;;
64545;Laerm;50936;51.660;5.616;2022-09-21T11:35:46;66.04;51.75;76.73;;
64545;Laerm;50936;51.660;5.616;2022-09-21T11:38:38;63.41;54.02;77.34;;
64545;Laerm;50936;51.660;5.616;2022-09-21T11:56:52;61.16;53.80;76.86;;
64545;Laerm;50936;51.660;5.616;2022-09-21T11:59:06;63.98;53.28;75.60;;
64545;Laerm;50936;51.660;5.616;2022-09-21T12:13:11;64.71;55.34;77.26;;
64545;Laerm;50936;51.660;5.616;2022-09-21T12:15:57;66.28;52.88;77.60;;
64545;Laerm;50936;51.660;5.616;2022-09-21T12:21:44;63.49;51.78;74.83;;
64545;Laerm;50936;51.660;5.616;2022-09-21T12:24:20;63.01;53.52;79.56;;
64545;Laerm;50936;51.660;5.616;2022-09-21T12:27:00;62.26;50.98;78.91;;
64545;Laerm;50936;51.660;5.616;2022-09-21T12:29:47;64.88;54.64;83.75;;
64545;Laerm;50936;51.660;5.616;2022-09-21T12:35:40;64.41;52.24;76.57;;
64545;Laerm;50936;51.660;5.616;2022-09-21T12:38:15;62.95;51.88;69.80;;
64545;Laerm;50936;51.660;5.616;2022-09-21T12:43:33;62.66;55.50;79.43;;
64545;Laerm;50936;51.660;5.616;2022-09-21T12:46:14;64.67;53.53;74.44;;
64545;Laerm;50936;51.660;5.616;2022-09-21T12:48:43;64.11;52.81;76.27;;
64545;Laerm;50936;51.660;5.616;2022-09-21T12:53:46;64.76;56.90;75.20;;
64545;Laerm;50936;51.660;5.616;2022-09-21T12:59:23;64.15;53.79;78.50;;
64545;Laerm;50936;51.660;5.616;2022-09-21T13:02:23;64.47;52.38;78.28;;
64545;Laerm;50936;51.660;5.616;2022-09-21T13:05:13;63.12;50.78;75.32;;
64545;Laerm;50936;51.660;5.616;2022-09-21T13:08:04;64.28;49.36;84.83;;
64545;Laerm;50936;51.660;5.616;2022-09-21T13:15:51;63.72;54.44;81.01;;
64545;Laerm;50936;51.660;5.616;2022-09-21T13:20:48;62.87;51.94;76.89;;
64545;Laerm;50936;51.660;5.616;2022-09-21T13:23:24;64.19;53.79;76.71;;
64545;Laerm;50936;51.660;5.616;2022-09-21T13:26:03;64.26;55.87;77.62;;
64545;Laerm;50936;51.660;5.616;2022-09-21T13:31:41;63.76;52.09;75.88;;
64545;Laerm;50936;51.660;5.616;2022-09-21T13:44:59;63.10;53.86;71.49;;
64545;Laerm;50936;51.660;5.616;2022-09-21T13:47:38;65.74;53.57;83.25;;
64545;Laerm;50936;51.660;5.616;2022-09-21T13:50:40;65.17;55.08;90.34;;
64545;Laerm;50936;51.660;5.616;2022-09-21T13:53:28;63.19;51.85;80.48;;
64545;Laerm;50936;51.660;5.616;2022-09-21T13:56:09;65.60;54.77;77.51;;
64545;Laerm;50936;51.660;5.616;2022-09-21T13:58:44;65.44;53.77;85.97;;
64545;Laerm;50936;51.660;5.616;2022-09-21T14:01:37;61.87;51.49;69.90;;
64545;Laerm;50936;51.660;5.616;2022-09-21T14:04:31;63.68;53.10;75.49;;
64545;Laerm;50936;51.660;5.616;2022-09-21T14:07:06;61.82;50.73;74.50;;
64545;Laerm;50936;51.660;5.616;2022-09-21T14:09:54;63.91;51.90;76.74;;
64545;Laerm;50936;51.660;5.616;2022-09-21T14:12:25;63.56;53.89;78.80;;
64545;Laerm;50936;51.660;5.616;2022-09-21T14:17:42;63.96;53.71;73.64;;
64545;Laerm;50936;51.660;5.616;2022-09-21T14:20:32;63.93;52.12;85.50;;
64545;Laerm;50936;51.660;5.616;2022-09-21T14:25:52;67.63;55.91;87.25;;
64545;Laerm;50936;51.660;5.616;2022-09-21T14:28:40;63.45;54.09;84.26;;
64545;Laerm;50936;51.660;5.616;2022-09-21T14:31:26;65.66;55.15;80.27;;
64545;Laerm;50936;51.660;5.616;2022-09-21T14:33:59;64.15;53.05;74.28;;
64545;Laerm;50936;51.660;5.616;2022-09-21T14:36:38;63.01;53.72;72.30;;
64545;Laerm;50936;51.660;5.616;2022-09-21T14:39:40;66.58;56.47;85.56;;
64545;Laerm;50936;51.660;5.616;2022-09-21T14:42:16;65.38;56.14;75.21;;
64545;Laerm;50936;51.660;5.616;2022-09-21T14:44:47;64.94;52.48;74.61;;
64545;Laerm;50936;51.660;5.616;2022-09-21T14:47:24;64.39;51.77;77.83;;
64545;Laerm;50936;51.660;5.616;2022-09-21T14:50:38;65.18;53.04;79.61;;
64545;Laerm;50936;51.660;5.616;2022-09-21T15:02:08;64.66;54.70;80.34;;
64545;Laerm;50936;51.660;5.616;2022-09-21T15:04:55;65.41;56.74;83.85;;
64545;Laerm;50936;51.660;5.616;2022-09-21T15:10:53;64.04;56.64;76.27;;
64545;Laerm;50936;51.660;5.616;2022-09-21T15:16:52;63.06;56.04;76.52;;
64545;Laerm;50936;51.660;5.616;2022-09-21T15:19:35;64.32;57.18;74.35;;
64545;Laerm;50936;51.660;5.616;2022-09-21T15:22:19;64.64;56.24;82.12;;
64545;Laerm;50936;51.660;5.616;2022-09-21T15:25:02;65.35;51.84;81.24;;
64545;Laerm;50936;51.660;5.616;2022-09-21T15:27:31;66.02;56.26;73.39;;
64545;Laerm;50936;51.660;5.616;2022-09-21T15:30:04;63.30;51.83;72.88;;
64545;Laerm;50936;51.660;5.616;2022-09-21T15:32:37;63.95;53.65;77.72;;
64545;Laerm;50936;51.660;5.616;2022-09-21T15:35:31;64.06;53.19;77.91;;
64545;Laerm;50936;51.660;5.616;2022-09-21T15:38:00;65.00;52.90;85.67;;
64545;Laerm;50936;51.660;5.616;2022-09-21T15:40:35;64.32;55.63;74.72;;
64545;Laerm;50936;51.660;5.616;2022-09-21T15:45:56;63.48;51.59;74.31;;
64545;Laerm;50936;51.660;5.616;2022-09-21T15:48:28;62.77;49.38;76.54;;
64545;Laerm;50936;51.660;5.616;2022-09-21T15:51:31;65.68;52.42;78.57;;
64545;Laerm;50936;51.660;5.616;2022-09-21T15:54:22;63.16;52.17;77.53;;
64545;Laerm;50936;51.660;5.616;2022-09-21T15:56:52;63.99;52.92;75.72;;
64545;Laerm;50936;51.660;5.616;2022-09-21T15:59:21;64.13;53.91;74.34;;
64545;Laerm;50936;51.660;5.616;2022-09-21T16:01:53;63.93;52.79;74.61;;
64545;Laerm;50936;51.660;5.616;2022-09-21T16:04:26;64.10;49.95;77.89;;
64545;Laerm;50936;51.660;5.616;2022-09-21T16:07:04;63.93;49.72;75.94;;
64545;Laerm;50936;51.660;5.616;2022-09-21T16:09:44;62.65;50.78;73.89;;
64545;Laerm;50936;51.660;5.616;2022-09-21T16:12:37;62.12;48.05;80.05;;
64545;Laerm;50936;51.660;5.616;2022-09-21T16:15:17;64.63;48.63;75.76;;
64545;Laerm;50936;51.660;5.616;2022-09-21T16:18:01;63.81;51.27;76.22;;
64545;Laerm;50936;51.660;5.616;2022-09-21T16:20:45;61.76;49.50;72.36;;
64545;Laerm;50936;51.660;5.616;2022-09-21T16:23:18;64.47;51.00;80.66;;
64545;Laerm;50936;51.660;5.616;2022-09-21T16:25:56;65.04;55.83;75.24;;
64545;Laerm;50936;51.660;5.616;2022-09-21T16:28:38;65.06;54.06;82.32;;
64545;Laerm;50936;51.660;5.616;2022-09-21T16:36:32;63.69;51.00;77.74;;
64545;Laerm;50936;51.660;5.616;2022-09-21T16:39:04;63.25;51.62;74.00;;
64545;Laerm;50936;51.660;5.616;2022-09-21T16:41:48;64.12;52.82;74.47;;
64545;Laerm;50936;51.660;5.616;2022-09-21T16:44:22;64.19;49.44;86.29;;
64545;Laerm;50936;51.660;5.616;2022-09-21T16:46:56;63.71;52.99;78.26;;
64545;Laerm;50936;51.660;5.616;2022-09-21T16:49:27;66.24;51.44;78.80;;
64545;Laerm;50936;51.660;5.616;2022-09-21T16:51:57;65.00;51.85;78.91;;
64545;Laerm;50936;51.660;5.616;2022-09-21T16:54:25;64.35;54.13;76.49;;
64545;Laerm;50936;51.660;5.616;2022-09-21T16:56:56;64.61;51.18;83.36;;
64545;Laerm;50936;51.660;5.616;2022-09-21T16:59:25;63.63;53.05;74.36;;
64545;Laerm;50936;51.660;5.616;2022-09-21T17:01:55;62.84;49.10;71.56;;
64545;Laerm;50936;51.660;5.616;2022-09-21T17:04:27;63.76;48.36;74.38;;
64545;Laerm;50936;51.660;5.616;2022-09-21T17:06:54;61.62;49.30;85.15;;
64545;Laerm;50936;51.660;5.616;2022-09-21T17:09:30;63.59;49.20;76.15;;
64545;Laerm;50936;51.660;5.616;2022-09-21T17:11:59;61.66;47.34;70.34;;
64545;Laerm;50936;51.660;5.616;2022-09-21T17:14:29;62.64;47.57;72.40;;
64545;Laerm;50936;51.660;5.616;2022-09-21T17:17:30;70.07;48.87;99.68;;
64545;Laerm;50936;51.660;5.616;2022-09-21T17:20:13;63.78;50.11;74.52;;
64545;Laerm;50936;51.660;5.616;2022-09-21T17:22:43;61.44;48.12;75.05;;
64545;Laerm;50936;51.660;5.616;2022-09-21T17:25:10;62.54;52.19;75.91;;
64545;Laerm;50936;51.660;5.616;2022-09-21T17:27:37;65.77;53.11;77.48;;
64545;Laerm;50936;51.660;5.616;2022-09-21T17:30:13;61.65;44.87;77.67;;